Time;durP1;ratioP1;P1;durP2;ratioP2;P2;SDS_P1;SDS_P2;PMS_P1;PMS_P2;Temp;Humidity;BMP_temperature;BMP_pressure;BME280_temperature;BME280_humidity;BME280_pressure;Samples;Min_cycle;Max_cycle;Signal;HPM_P1;HPM_P2
2023/02/18 00:02:14;;;;;;;12.77;1.88;;;;;;;;;;6235558;23;20099;-51
2023/02/18 00:04:48;;;;;;;12.05;2.70;;;;;;;;;;6236464;23;20360;-49
2023/02/18 00:07:15;;;;;;;9.40;1.98;;;;;;;;;;6235442;23;20016;-51
2023/02/18 00:09:48;;;;;;;7.90;2.22;;;;;;;;;;6233899;23;20529;-50
2023/02/18 00:12:16;;;;;;;12.00;2.60;;;;;;;;;;6234183;23;20087;-72
2023/02/18 00:14:50;;;;;;;8.27;2.42;;;;;;;;;;6235442;23;20637;-72
2023/02/18 00:17:17;;;;;;;8.60;2.25;;;;;;;;;;6235228;23;20558;-72
2023/02/18 00:19:44;;;;;;;10.68;2.38;;;;;;;;;;6232699;23;20689;-72
2023/02/18 00:22:18;;;;;;;10.48;1.75;;;;;;;;;;6233083;23;20025;-61
2023/02/18 00:24:51;;;;;;;11.23;2.20;;;;;;;;;;6230455;23;20024;-60
2023/02/18 00:27:32;;;;;;;7.57;1.77;;;;;;;;;;6233272;23;20386;-59
2023/02/18 00:30:00;;;;;;;13.65;1.83;;;;;;;;;;6234523;23;20103;-59
2023/02/18 00:32:34;;;;;;;6.40;1.67;;;;;;;;;;6233615;23;20438;-60
2023/02/18 00:35:09;;;;;;;9.30;1.88;;;;;;;;;;6235030;23;20024;-59
2023/02/18 00:37:36;;;;;;;7.03;1.73;;;;;;;;;;6234418;23;20344;-59
2023/02/18 00:40:03;;;;;;;12.25;2.20;;;;;;;;;;6235929;23;20115;-52
2023/02/18 00:42:38;;;;;;;9.20;1.92;;;;;;;;;;6232850;23;20025;-52
2023/02/18 00:45:05;;;;;;;11.45;2.00;;;;;;;;;;6235578;23;20032;-50
2023/02/18 00:47:39;;;;;;;11.27;2.45;;;;;;;;;;6234099;23;20099;-54
2023/02/18 00:50:06;;;;;;;15.98;2.15;;;;;;;;;;6235060;23;20329;-63
2023/02/18 00:52:33;;;;;;;13.18;2.08;;;;;;;;;;6234456;23;20042;-58
2023/02/18 00:55:08;;;;;;;9.70;2.30;;;;;;;;;;6235285;23;20127;-55
2023/02/18 00:57:35;;;;;;;12.77;1.92;;;;;;;;;;6233204;23;20466;-59
2023/02/18 01:00:09;;;;;;;11.25;2.08;;;;;;;;;;6234554;23;20459;-56
2023/02/18 01:02:36;;;;;;;13.25;1.88;;;;;;;;;;6234859;23;20099;-59
2023/02/18 01:05:03;;;;;;;9.38;1.83;;;;;;;;;;6235056;23;20509;-59
2023/02/18 01:07:37;;;;;;;8.93;1.58;;;;;;;;;;6233688;23;20028;-71
2023/02/18 01:10:04;;;;;;;14.13;2.20;;;;;;;;;;6235847;23;20026;-71
2023/02/18 01:12:31;;;;;;;11.57;1.85;;;;;;;;;;6234905;23;20027;-71
2023/02/18 01:15:06;;;;;;;9.15;2.10;;;;;;;;;;6235557;23;20099;-72
2023/02/18 01:17:33;;;;;;;6.50;1.33;;;;;;;;;;6233386;23;20151;-49
2023/02/18 01:20:08;;;;;;;7.20;1.88;;;;;;;;;;6235426;23;20024;-60
2023/02/18 01:22:35;;;;;;;11.85;2.17;;;;;;;;;;6233496;23;20561;-59
2023/02/18 01:25:10;;;;;;;13.65;2.10;;;;;;;;;;6230204;23;20016;-59
2023/02/18 01:27:50;;;;;;;5.30;1.45;;;;;;;;;;6235114;23;20020;-59
2023/02/18 01:30:18;;;;;;;7.35;1.65;;;;;;;;;;6237192;23;20020;-59
2023/02/18 01:32:52;;;;;;;11.95;2.38;;;;;;;;;;6236252;23;20071;-58
2023/02/18 01:35:19;;;;;;;16.48;2.38;;;;;;;;;;6237360;23;20111;-59
2023/02/18 01:37:47;;;;;;;11.43;2.10;;;;;;;;;;6235992;23;20099;-61
2023/02/18 01:40:22;;;;;;;18.60;2.30;;;;;;;;;;6234944;23;20092;-61
2023/02/18 01:42:50;;;;;;;15.18;2.60;;;;;;;;;;6236008;23;20020;-61
2023/02/18 01:45:32;;;;;;;12.95;2.17;;;;;;;;;;6236480;23;20183;-61
2023/02/18 01:48:09;;;;;;;9.75;2.10;;;;;;;;;;6236006;23;20099;-78
2023/02/18 01:50:38;;;;;;;8.27;2.13;;;;;;;;;;6236035;23;20479;-59
2023/02/18 01:53:14;;;;;;;7.95;1.90;;;;;;;;;;6235899;23;20020;-60
2023/02/18 01:55:42;;;;;;;11.60;2.08;;;;;;;;;;6235927;23;20024;-58
2023/02/18 01:58:16;;;;;;;12.77;2.70;;;;;;;;;;6234985;23;20016;-57
2023/02/18 02:00:43;;;;;;;11.00;2.20;;;;;;;;;;6235044;23;20139;-57
2023/02/18 02:03:10;;;;;;;8.60;2.15;;;;;;;;;;6237147;23;20017;-59
2023/02/18 02:05:45;;;;;;;10.10;1.42;;;;;;;;;;6235033;23;20107;-78
2023/02/18 02:08:12;;;;;;;13.85;1.77;;;;;;;;;;6234052;23;20078;-77
2023/02/18 02:11:07;;;;;;;10.82;1.92;;;;;;;;;;6235517;23;20410;-75
2023/02/18 02:13:42;;;;;;;9.68;1.60;;;;;;;;;;6235736;23;20348;-76
2023/02/18 02:16:21;;;;;;;11.07;1.90;;;;;;;;;;6235462;23;20134;-76
2023/02/18 02:19:14;;;;;;;7.90;1.42;;;;;;;;;;6235788;23;20082;-76
2023/02/18 02:21:48;;;;;;;6.45;2.22;;;;;;;;;;6236546;23;20028;-76
2023/02/18 02:24:35;;;;;;;11.65;1.95;;;;;;;;;;6231815;23;20131;-77
2023/02/18 02:27:19;;;;;;;9.52;1.70;;;;;;;;;;6236789;23;20020;-77
2023/02/18 02:30:13;;;;;;;10.85;1.63;;;;;;;;;;6236748;23;20028;-77
2023/02/18 02:33:05;;;;;;;9.57;1.85;;;;;;;;;;6237381;23;20082;-60
2023/02/18 02:35:38;;;;;;;9.18;1.90;;;;;;;;;;6234282;23;20586;-58
2023/02/18 02:38:20;;;;;;;9.85;1.60;;;;;;;;;;6234331;23;20024;-58
2023/02/18 02:40:54;;;;;;;10.55;1.90;;;;;;;;;;6236061;23;20174;-59
2023/02/18 02:43:28;;;;;;;8.43;1.90;;;;;;;;;;6235832;23;20032;-61
2023/02/18 02:45:55;;;;;;;;;;;;;;;;;;6236663;23;20024;-62
2023/02/18 02:48:37;;;;;;;7.70;1.80;;;;;;;;;;6223105;23;19998;-61
2023/02/18 02:51:14;;;;;;;9.82;1.98;;;;;;;;;;6235535;23;20479;-61
2023/02/18 02:53:49;;;;;;;9.77;2.05;;;;;;;;;;6236197;23;20103;-61
2023/02/18 02:56:17;;;;;;;11.43;1.65;;;;;;;;;;6235015;23;20024;-63
2023/02/18 02:58:46;;;;;;;6.90;2.03;;;;;;;;;;6234246;23;20096;-62
2023/02/18 03:01:33;;;;;;;14.57;2.10;;;;;;;;;;6236117;23;20111;-60
2023/02/18 03:04:03;;;;;;;7.25;1.70;;;;;;;;;;6235767;23;20095;-60
2023/02/18 03:06:43;;;;;;;9.43;2.35;;;;;;;;;;6235298;23;20024;-59
2023/02/18 03:09:24;;;;;;;7.97;1.80;;;;;;;;;;6236014;23;20073;-60
2023/02/18 03:12:25;;;;;;;12.88;1.83;;;;;;;;;;6235930;23;20034;-60
2023/02/18 03:15:15;;;;;;;13.32;1.60;;;;;;;;;;6236098;23;20020;-62
2023/02/18 03:18:14;;;;;;;7.25;1.55;;;;;;;;;;6233611;23;20048;-61
2023/02/18 03:20:57;;;;;;;15.20;2.03;;;;;;;;;;6235168;23;20570;-62
2023/02/18 03:23:26;;;;;;;13.65;1.70;;;;;;;;;;6233365;23;20020;-62
2023/02/18 03:26:14;;;;;;;8.18;1.63;;;;;;;;;;6234989;23;20467;-61
2023/02/18 03:28:43;;;;;;;8.73;1.85;;;;;;;;;;6233661;23;20051;-62
2023/02/18 03:31:20;;;;;;;6.57;1.63;;;;;;;;;;6235165;23;20430;-72
2023/02/18 03:33:59;;;;;;;9.25;1.42;;;;;;;;;;6235567;23;20102;-69
2023/02/18 03:36:33;;;;;;;7.45;1.73;;;;;;;;;;6232785;23;20507;-72
2023/02/18 03:39:03;;;;;;;12.25;1.60;;;;;;;;;;6236100;23;20091;-71
2023/02/18 03:41:37;;;;;;;8.77;1.52;;;;;;;;;;6234898;23;20028;-70
2023/02/18 03:44:06;;;;;;;12.65;2.03;;;;;;;;;;6235869;23;20135;-59
2023/02/18 03:46:44;;;;;;;10.77;1.55;;;;;;;;;;6235193;23;20432;-58
2023/02/18 03:49:12;;;;;;;5.53;1.52;;;;;;;;;;6233256;23;20102;-58
2023/02/18 03:51:40;;;;;;;9.07;1.45;;;;;;;;;;6233451;23;20459;-59
2023/02/18 03:54:14;;;;;;;8.30;1.45;;;;;;;;;;6236827;23;20055;-58
2023/02/18 03:56:41;;;;;;;7.10;1.95;;;;;;;;;;6231626;23;20024;-59
2023/02/18 03:59:15;;;;;;;7.10;1.50;;;;;;;;;;6235004;23;20378;-61
2023/02/18 04:01:42;;;;;;;9.25;1.98;;;;;;;;;;6234477;23;20066;-60
2023/02/18 04:04:09;;;;;;;10.50;1.70;;;;;;;;;;6235031;23;20111;-61
2023/02/18 04:06:43;;;;;;;5.10;1.40;;;;;;;;;;6232287;23;20102;-61
2023/02/18 04:09:10;;;;;;;11.32;1.88;;;;;;;;;;6235035;23;20110;-70
2023/02/18 04:11:38;;;;;;;9.85;1.45;;;;;;;;;;6233485;23;20064;-49
2023/02/18 04:14:13;;;;;;;10.13;1.95;;;;;;;;;;6234985;23;20018;-49
2023/02/18 04:16:40;;;;;;;11.68;2.17;;;;;;;;;;6232947;23;20024;-52
2023/02/18 04:19:14;;;;;;;14.10;1.98;;;;;;;;;;6235176;23;20024;-52
2023/02/18 04:21:41;;;;;;;7.97;2.00;;;;;;;;;;6233670;23;20056;-48
2023/02/18 04:24:08;;;;;;;8.75;1.63;;;;;;;;;;6233407;23;20491;-47
2023/02/18 04:26:48;;;;;;;7.20;1.88;;;;;;;;;;6234141;23;20021;-59
2023/02/18 04:29:15;;;;;;;13.40;2.20;;;;;;;;;;6234739;23;20026;-59
2023/02/18 04:31:50;;;;;;;7.28;1.70;;;;;;;;;;6233484;23;20105;-57
2023/02/18 04:34:17;;;;;;;8.80;1.60;;;;;;;;;;6233830;23;20020;-59
2023/02/18 04:36:44;;;;;;;11.40;1.90;;;;;;;;;;6232884;23;20479;-60
2023/02/18 04:39:18;;;;;;;7.10;1.77;;;;;;;;;;6236784;23;20107;-61
2023/02/18 04:41:45;;;;;;;5.60;1.42;;;;;;;;;;6234063;23;20422;-61
2023/02/18 04:44:12;;;;;;;12.35;2.25;;;;;;;;;;6234064;23;20108;-61
2023/02/18 04:46:46;;;;;;;16.13;2.60;;;;;;;;;;6233434;23;20126;-61
2023/02/18 04:49:13;;;;;;;9.82;1.85;;;;;;;;;;6234514;23;20020;-61
2023/02/18 04:51:47;;;;;;;14.35;1.55;;;;;;;;;;6233396;23;20179;-62
2023/02/18 04:54:14;;;;;;;8.55;1.58;;;;;;;;;;6236626;23;20570;-62
2023/02/18 04:56:41;;;;;;;12.52;1.48;;;;;;;;;;6234699;23;20099;-58
2023/02/18 04:59:15;;;;;;;9.93;1.85;;;;;;;;;;6235304;23;20016;-57
2023/02/18 05:01:42;;;;;;;10.48;1.90;;;;;;;;;;6235685;23;20379;-57
2023/02/18 05:04:10;;;;;;;8.90;1.52;;;;;;;;;;6236544;23;20030;-55
2023/02/18 05:06:44;;;;;;;6.18;2.05;;;;;;;;;;6235404;23;20017;-70
2023/02/18 05:09:11;;;;;;;10.57;1.55;;;;;;;;;;6238072;23;20026;-58
2023/02/18 05:11:46;;;;;;;10.07;1.67;;;;;;;;;;6235762;23;20020;-59
2023/02/18 05:14:14;;;;;;;7.75;1.60;;;;;;;;;;6237534;23;20086;-58
2023/02/18 05:16:41;;;;;;;;;;;;;;;;;;6236267;23;20024;-57
2023/02/18 05:19:15;;;;;;;6.75;1.70;;;;;;;;;;6236241;23;20003;-59
2023/02/18 05:21:42;;;;;;;;;;;;;;;;;;6235086;23;20380;-59
2023/02/18 05:24:22;;;;;;;8.23;1.65;;;;;;;;;;6237257;23;19919;-70
2023/02/18 05:26:56;;;;;;;10.20;1.73;;;;;;;;;;6236498;23;20095;-72
2023/02/18 05:29:30;;;;;;;7.47;1.58;;;;;;;;;;6233244;23;20636;-71
2023/02/18 05:31:57;;;;;;;9.77;2.30;;;;;;;;;;6234890;23;20020;-71
2023/02/18 05:34:24;;;;;;;10.15;2.08;;;;;;;;;;6237143;23;20334;-59
2023/02/18 05:36:58;;;;;;;10.77;1.73;;;;;;;;;;6235499;23;20359;-61
2023/02/18 05:39:25;;;;;;;5.70;1.58;;;;;;;;;;6236575;23;20065;-61
2023/02/18 05:41:59;;;;;;;9.23;2.15;;;;;;;;;;6234391;23;20020;-61
2023/02/18 05:44:29;;;;;;;9.68;1.77;;;;;;;;;;6237540;23;20030;-61
2023/02/18 05:47:00;;;;;;;10.48;1.98;;;;;;;;;;6235148;23;20052;-61
2023/02/18 05:49:38;;;;;;;8.13;1.80;;;;;;;;;;6235739;23;20028;-60
2023/02/18 05:52:05;;;;;;;10.93;1.85;;;;;;;;;;6236009;23;20022;-52
2023/02/18 05:54:39;;;;;;;12.23;1.98;;;;;;;;;;6237781;23;20030;-50
2023/02/18 05:57:06;;;;;;;12.20;1.83;;;;;;;;;;6235279;23;20106;-50
2023/02/18 05:59:33;;;;;;;12.85;2.22;;;;;;;;;;6235232;23;20032;-50
2023/02/18 06:02:07;;;;;;;10.55;1.90;;;;;;;;;;6234306;23;20556;-56
2023/02/18 06:04:34;;;;;;;16.73;2.35;;;;;;;;;;6233724;23;20016;-68
2023/02/18 06:07:08;;;;;;;15.38;1.85;;;;;;;;;;6234449;23;20059;-58
2023/02/18 06:09:35;;;;;;;21.92;2.70;;;;;;;;;;6236286;23;20034;-58
2023/02/18 06:12:02;;;;;;;12.68;2.92;;;;;;;;;;6233729;23;20026;-59
2023/02/18 06:14:36;;;;;;;11.45;2.13;;;;;;;;;;6234849;23;20086;-55
2023/02/18 06:17:03;;;;;;;15.38;2.17;;;;;;;;;;6235845;23;20024;-57
2023/02/18 06:19:37;;;;;;;20.17;2.90;;;;;;;;;;6234320;23;20030;-57
2023/02/18 06:22:04;;;;;;;22.10;2.50;;;;;;;;;;6235092;23;20028;-67
2023/02/18 06:24:31;;;;;;;22.55;3.25;;;;;;;;;;6235782;23;20016;-69
2023/02/18 06:27:19;;;;;;;16.00;2.55;;;;;;;;;;6233597;23;20039;-68
2023/02/18 06:29:47;;;;;;;16.00;2.42;;;;;;;;;;6234786;23;20108;-68
2023/02/18 06:32:21;;;;;;;13.25;2.40;;;;;;;;;;6235301;23;20046;-71
2023/02/18 06:34:48;;;;;;;15.88;2.58;;;;;;;;;;6235284;23;20028;-54
2023/02/18 06:37:15;;;;;;;23.10;2.70;;;;;;;;;;6235225;23;20024;-56
2023/02/18 06:39:49;;;;;;;28.88;2.72;;;;;;;;;;6236948;23;20028;-54
2023/02/18 06:42:16;;;;;;;12.48;3.08;;;;;;;;;;6234645;23;20104;-56
2023/02/18 06:44:50;;;;;;;14.65;3.00;;;;;;;;;;6235738;23;20020;-58
2023/02/18 06:47:17;;;;;;;13.25;2.63;;;;;;;;;;6234404;23;20475;-58
2023/02/18 06:49:44;;;;;;;17.60;2.63;;;;;;;;;;6235716;23;20103;-60
2023/02/18 06:52:18;;;;;;;22.98;2.30;;;;;;;;;;6235225;23;20418;-61
2023/02/18 06:54:45;;;;;;;12.93;2.70;;;;;;;;;;6235920;23;20103;-61
2023/02/18 06:57:12;;;;;;;21.05;2.38;;;;;;;;;;6233403;23;20059;-61
2023/02/18 06:59:46;;;;;;;14.45;2.20;;;;;;;;;;6236685;23;20424;-71
2023/02/18 07:02:13;;;;;;;12.82;2.80;;;;;;;;;;6233302;23;20495;-59
2023/02/18 07:04:47;;;;;;;17.52;2.22;;;;;;;;;;6234103;23;20047;-60
2023/02/18 07:07:14;;;;;;;26.83;2.85;;;;;;;;;;6234614;23;20118;-59
2023/02/18 07:09:41;;;;;;;18.48;2.67;;;;;;;;;;6235229;23;20115;-60
2023/02/18 07:12:15;;;;;;;10.23;2.08;;;;;;;;;;6234053;23;20409;-60
2023/02/18 07:14:42;;;;;;;14.65;1.90;;;;;;;;;;6233844;23;20016;-60
2023/02/18 07:17:16;;;;;;;12.50;2.25;;;;;;;;;;6235441;23;20123;-61
2023/02/18 07:19:43;;;;;;;18.45;3.10;;;;;;;;;;6233909;23;20016;-60
2023/02/18 07:22:11;;;;;;;14.48;1.80;;;;;;;;;;6233386;23;20110;-60
2023/02/18 07:24:45;;;;;;;15.75;2.60;;;;;;;;;;6235951;23;20107;-60
2023/02/18 07:27:19;;;;;;;15.80;2.63;;;;;;;;;;6233297;23;20046;-60
2023/02/18 07:29:53;;;;;;;13.02;2.10;;;;;;;;;;6235882;23;20034;-68
2023/02/18 07:32:20;;;;;;;13.25;2.63;;;;;;;;;;6235521;23;20034;-56
2023/02/18 07:34:47;;;;;;;18.95;2.47;;;;;;;;;;6235459;23;20074;-56
2023/02/18 07:37:22;;;;;;;16.48;2.63;;;;;;;;;;6234052;23;20028;-59
2023/02/18 07:39:49;;;;;;;15.25;2.83;;;;;;;;;;6236058;23;20095;-58
2023/02/18 07:42:23;;;;;;;14.90;2.63;;;;;;;;;;6234155;23;20506;-57
2023/02/18 07:44:50;;;;;;;14.38;2.33;;;;;;;;;;6234832;23;20025;-59
2023/02/18 07:47:24;;;;;;;13.25;2.08;;;;;;;;;;6235064;23;20042;-59
2023/02/18 07:49:51;;;;;;;15.27;2.15;;;;;;;;;;6235303;23;20027;-59
2023/02/18 07:52:18;;;;;;;9.63;1.60;;;;;;;;;;6235338;23;20020;-60
2023/02/18 07:54:52;;;;;;;14.80;2.50;;;;;;;;;;6236954;23;20102;-60
2023/02/18 07:57:19;;;;;;;10.27;2.28;;;;;;;;;;6234899;23;20055;-57
2023/02/18 07:59:54;;;;;;;9.23;1.80;;;;;;;;;;6236615;23;20024;-48
2023/02/18 08:02:22;;;;;;;13.38;2.38;;;;;;;;;;6235878;23;20055;-50
2023/02/18 08:04:56;;;;;;;19.90;2.45;;;;;;;;;;6234364;23;20513;-49
2023/02/18 08:07:23;;;;;;;11.10;2.40;;;;;;;;;;6234637;23;20020;-49
2023/02/18 08:09:57;;;;;;;10.73;2.15;;;;;;;;;;6235847;23;20574;-48
2023/02/18 08:12:24;;;;;;;14.93;1.90;;;;;;;;;;6234891;23;20022;-49
2023/02/18 08:14:51;;;;;;;11.93;2.00;;;;;;;;;;6233857;23;20031;-63
2023/02/18 08:17:25;;;;;;;11.05;2.35;;;;;;;;;;6232602;23;20026;-63
2023/02/18 08:19:52;;;;;;;11.30;2.75;;;;;;;;;;6233541;23;20020;-62
2023/02/18 08:22:26;;;;;;;11.07;2.30;;;;;;;;;;6233711;23;20434;-63
2023/02/18 08:25:02;;;;;;;9.60;2.17;;;;;;;;;;6232985;23;20471;-71
2023/02/18 08:28:00;;;;;;;9.52;1.75;;;;;;;;;;6205013;23;20031;-58
2023/02/18 08:30:27;;;;;;;14.43;2.78;;;;;;;;;;6204206;23;20023;-57
2023/02/18 08:33:01;;;;;;;13.32;2.15;;;;;;;;;;6204192;23;20554;-57
2023/02/18 08:35:28;;;;;;;17.05;2.25;;;;;;;;;;6193539;23;20025;-58
2023/02/18 08:38:02;;;;;;;13.10;2.25;;;;;;;;;;6206683;23;20099;-57
2023/02/18 08:40:29;;;;;;;8.68;2.25;;;;;;;;;;6206757;23;20027;-57
2023/02/18 08:42:56;;;;;;;14.75;2.33;;;;;;;;;;6208475;23;20021;-50
2023/02/18 08:45:30;;;;;;;15.13;2.03;;;;;;;;;;6195096;23;20471;-48
2023/02/18 08:47:58;;;;;;;15.48;2.40;;;;;;;;;;6206566;23;20016;-51
2023/02/18 08:50:46;;;;;;;18.08;2.30;;;;;;;;;;6197560;23;20025;-47
2023/02/18 08:53:14;;;;;;;13.52;2.95;;;;;;;;;;6201209;23;20079;-74
2023/02/18 08:55:48;;;;;;;9.95;1.90;;;;;;;;;;6202634;23;20024;-51
2023/02/18 08:58:22;;;;;;;12.88;2.00;;;;;;;;;;6203429;23;20563;-50
2023/02/18 09:01:00;;;;;;;15.93;2.20;;;;;;;;;;6204363;23;20021;-49
2023/02/18 09:03:35;;;;;;;13.48;2.08;;;;;;;;;;6192329;23;20503;-48
2023/02/18 09:06:03;;;;;;;8.32;2.00;;;;;;;;;;6203685;23;20031;-47
2023/02/18 09:08:30;;;;;;;25.60;2.88;;;;;;;;;;6204373;23;20107;-47
2023/02/18 09:11:04;;;;;;;11.35;2.25;;;;;;;;;;6203087;23;20562;-61
2023/02/18 09:13:32;;;;;;;12.65;2.22;;;;;;;;;;6204146;23;20020;-60
2023/02/18 09:16:07;;;;;;;13.77;2.08;;;;;;;;;;6204080;23;20127;-61
2023/02/18 09:18:34;;;;;;;13.80;2.33;;;;;;;;;;6201528;23;20527;-61
2023/02/18 09:21:02;;;;;;;8.63;2.35;;;;;;;;;;6198242;23;20336;-60
2023/02/18 09:23:36;;;;;;;11.68;2.03;;;;;;;;;;6201347;23;20028;-55
2023/02/18 09:26:13;;;;;;;12.55;1.70;;;;;;;;;;6213416;23;20038;-78
2023/02/18 09:28:48;;;;;;;8.32;1.70;;;;;;;;;;6230239;23;20020;-78
2023/02/18 09:31:16;;;;;;;12.98;1.88;;;;;;;;;;6232779;23;20438;-78
2023/02/18 09:33:45;;;;;;;6.40;1.75;;;;;;;;;;6229675;23;20024;-78
2023/02/18 09:36:22;;;;;;;16.35;2.70;;;;;;;;;;6232292;23;20107;-79
2023/02/18 09:38:49;;;;;;;11.90;2.00;;;;;;;;;;6232420;23;20467;-77
2023/02/18 09:41:42;;;;;;;10.85;1.95;;;;;;;;;;6233679;23;20103;-59
2023/02/18 09:44:26;;;;;;;13.50;2.50;;;;;;;;;;6231391;23;20099;-58
2023/02/18 09:47:06;;;;;;;12.07;2.00;;;;;;;;;;6231112;23;20034;-59
2023/02/18 09:49:40;;;;;;;9.45;1.58;;;;;;;;;;6231402;23;20116;-59
2023/02/18 09:52:20;;;;;;;6.10;1.45;;;;;;;;;;6234534;23;20489;-61
2023/02/18 09:54:48;;;;;;;13.45;2.03;;;;;;;;;;6231707;23;20030;-50
2023/02/18 09:57:25;;;;;;;9.65;2.10;;;;;;;;;;6231666;23;20028;-47
2023/02/18 09:59:57;;;;;;;8.57;1.88;;;;;;;;;;6234621;23;20020;-47
2023/02/18 10:02:31;;;;;;;5.60;1.45;;;;;;;;;;6235174;23;20574;-48
2023/02/18 10:04:58;;;;;;;10.82;2.10;;;;;;;;;;6233283;23;20020;-51
2023/02/18 10:07:32;;;;;;;10.40;2.45;;;;;;;;;;6236078;23;20051;-53
2023/02/18 10:10:02;;;;;;;6.35;1.58;;;;;;;;;;6237951;23;20510;-73
2023/02/18 10:12:36;;;;;;;12.77;1.65;;;;;;;;;;6236072;23;20032;-73
2023/02/18 10:15:03;;;;;;;7.28;1.48;;;;;;;;;;6236095;23;20048;-72
2023/02/18 10:17:32;;;;;;;9.45;1.27;;;;;;;;;;6234004;23;20093;-72
2023/02/18 10:20:12;;;;;;;8.15;2.60;;;;;;;;;;6235103;23;20020;-62
2023/02/18 10:22:54;;;;;;;12.05;1.42;;;;;;;;;;6237066;23;20091;-81
2023/02/18 10:25:23;;;;;;;5.75;1.50;;;;;;;;;;6234273;23;20477;-81
2023/02/18 10:28:04;;;;;;;10.82;1.98;;;;;;;;;;6234095;23;20059;-82
2023/02/18 10:30:51;;;;;;;10.32;2.13;;;;;;;;;;6237879;23;20028;-82
2023/02/18 10:33:57;;;;;;;5.90;1.52;;;;;;;;;;6231544;23;20060;-82
2023/02/18 10:36:45;;;;;;;7.05;1.77;;;;;;;;;;6186691;23;20024;-60
2023/02/18 10:39:31;;;;;;;8.13;1.60;;;;;;;;;;6232565;23;20474;-59
2023/02/18 10:42:24;;;;;;;5.22;1.23;;;;;;;;;;6236364;23;20112;-60
2023/02/18 10:45:00;;;;;;;13.43;1.95;;;;;;;;;;6230497;23;20026;-59
2023/02/18 10:47:57;;;;;;;14.35;2.40;;;;;;;;;;6233985;23;20475;-62
2023/02/18 10:50:29;;;;;;;10.13;1.70;;;;;;;;;;6223991;23;20403;-73
2023/02/18 10:53:23;;;;;;;14.27;2.05;;;;;;;;;;6234027;23;20030;-73
2023/02/18 10:55:53;;;;;;;10.15;1.80;;;;;;;;;;6233597;23;20034;-73
2023/02/18 10:58:29;;;;;;;10.73;1.33;;;;;;;;;;6235120;23;20044;-73
2023/02/18 11:00:57;;;;;;;9.30;1.55;;;;;;;;;;6233748;23;20094;-72
2023/02/18 11:03:39;;;;;;;22.65;2.45;;;;;;;;;;6235156;23;20055;-72
2023/02/18 11:06:06;;;;;;;6.63;1.70;;;;;;;;;;6236691;23;20076;-63
2023/02/18 11:08:43;;;;;;;13.95;1.60;;;;;;;;;;6234184;23;20419;-63
2023/02/18 11:11:16;;;;;;;11.40;1.50;;;;;;;;;;6234118;23;20031;-63
2023/02/18 11:13:54;;;;;;;13.00;1.85;;;;;;;;;;6234658;23;20034;-62
2023/02/18 11:16:22;;;;;;;8.40;1.55;;;;;;;;;;6235324;23;20020;-63
2023/02/18 11:19:03;;;;;;;12.57;1.70;;;;;;;;;;6234877;23;20278;-59
2023/02/18 11:21:33;;;;;;;4.60;1.60;;;;;;;;;;6234417;23;20074;-59
2023/02/18 11:24:09;;;;;;;8.82;1.38;;;;;;;;;;6235780;23;20059;-59
2023/02/18 11:26:49;;;;;;;5.35;1.10;;;;;;;;;;6233537;23;20430;-60
2023/02/18 11:29:26;;;;;;;11.25;1.95;;;;;;;;;;6234800;23;20030;-60
2023/02/18 11:31:55;;;;;;;6.13;1.42;;;;;;;;;;6234973;23;20034;-59
2023/02/18 11:34:23;;;;;;;11.27;1.85;;;;;;;;;;6235982;23;20399;-61
2023/02/18 11:37:07;;;;;;;7.43;1.60;;;;;;;;;;6234965;23;20024;-61
2023/02/18 11:39:35;;;;;;;8.15;1.38;;;;;;;;;;6234408;23;20099;-61
2023/02/18 11:42:12;;;;;;;8.05;1.48;;;;;;;;;;6234217;23;20286;-60
2023/02/18 11:44:48;;;;;;;4.28;1.23;;;;;;;;;;6233459;23;20099;-61
2023/02/18 11:47:24;;;;;;;5.88;1.30;;;;;;;;;;6233658;23;20024;-79
2023/02/18 11:50:02;;;;;;;9.02;1.20;;;;;;;;;;6230401;23;20031;-79
2023/02/18 11:52:40;;;;;;;3.50;0.80;;;;;;;;;;6233929;23;20456;-79
2023/02/18 11:55:15;;;;;;;7.10;1.02;;;;;;;;;;6233374;23;20664;-79
2023/02/18 11:57:55;;;;;;;6.65;1.45;;;;;;;;;;6234871;23;20103;-78
2023/02/18 12:00:24;;;;;;;5.63;1.08;;;;;;;;;;6233189;23;20182;-78
2023/02/18 12:02:59;;;;;;;5.05;1.38;;;;;;;;;;6225219;23;20467;-65
2023/02/18 12:05:27;;;;;;;5.20;1.20;;;;;;;;;;6232711;23;20548;-65
2023/02/18 12:07:59;;;;;;;5.68;1.27;;;;;;;;;;6234975;23;20023;-65
2023/02/18 12:10:38;;;;;;;3.53;1.10;;;;;;;;;;6232770;23;20529;-65
2023/02/18 12:13:07;;;;;;;3.33;0.90;;;;;;;;;;6234316;23;20468;-75
2023/02/18 12:15:47;;;;;;;3.05;1.08;;;;;;;;;;6234297;23;20082;-51
2023/02/18 12:18:15;;;;;;;5.47;1.20;;;;;;;;;;6233750;23;20056;-54
2023/02/18 12:20:52;;;;;;;3.53;1.40;;;;;;;;;;6231686;23;20099;-54
2023/02/18 12:23:37;;;;;;;18.73;8.70;;;;;;;;;;6233894;23;20063;-52
2023/02/18 12:26:38;;;;;;;7.43;2.00;;;;;;;;;;6231030;23;20399;-53
2023/02/18 12:29:31;;;;;;;14.02;5.28;;;;;;;;;;6234314;23;20078;-55
2023/02/18 12:32:10;;;;;;;3.85;1.77;;;;;;;;;;6236025;23;20103;-74
2023/02/18 12:34:47;;;;;;;7.35;1.90;;;;;;;;;;6233471;23;20382;-74
2023/02/18 12:37:27;;;;;;;3.70;1.08;;;;;;;;;;6234237;23;20095;-73
2023/02/18 12:40:02;;;;;;;7.38;1.63;;;;;;;;;;6233313;23;20020;-73
2023/02/18 12:42:39;;;;;;;4.88;1.30;;;;;;;;;;6233479;23;20055;-82
2023/02/18 12:45:19;;;;;;;2.38;0.70;;;;;;;;;;6232079;23;20091;-62
2023/02/18 12:48:19;;;;;;;8.00;3.10;;;;;;;;;;6234990;23;20020;-62
2023/02/18 12:51:06;;;;;;;9.00;3.42;;;;;;;;;;6200294;23;20024;-61
2023/02/18 12:53:57;;;;;;;9.43;3.40;;;;;;;;;;6232401;23;20091;-61
2023/02/18 12:56:33;;;;;;;37.83;16.65;;;;;;;;;;6235215;23;20016;-62
2023/02/18 12:59:13;;;;;;;4.15;1.10;;;;;;;;;;6233296;23;20020;-61
2023/02/18 13:01:40;;;;;;;8.88;4.03;;;;;;;;;;6233756;23;20111;-61
2023/02/18 13:04:32;;;;;;;15.88;7.18;;;;;;;;;;6233422;23;20026;-62
2023/02/18 13:07:21;;;;;;;6.68;1.73;;;;;;;;;;6232048;23;20023;-61
2023/02/18 13:10:07;;;;;;;4.55;1.73;;;;;;;;;;6232715;23;20016;-51
2023/02/18 13:12:40;;;;;;;4.05;1.45;;;;;;;;;;6233576;23;20095;-62
2023/02/18 13:15:20;;;;;;;2.97;1.20;;;;;;;;;;6232727;23;20519;-62
2023/02/18 13:17:48;;;;;;;2.30;0.82;;;;;;;;;;6234357;23;20383;-62
2023/02/18 13:20:41;;;;;;;4.93;1.00;;;;;;;;;;6234337;23;20028;-62
2023/02/18 13:23:13;;;;;;;2.55;0.88;;;;;;;;;;6235436;23;20502;-61
2023/02/18 13:26:05;;;;;;;2.22;0.80;;;;;;;;;;6234013;23;20026;-61
2023/02/18 13:28:44;;;;;;;3.17;0.90;;;;;;;;;;6237227;23;20024;-61
2023/02/18 13:31:27;;;;;;;4.07;1.20;;;;;;;;;;6235897;23;20371;-61
2023/02/18 13:33:58;;;;;;;4.00;1.20;;;;;;;;;;6235524;23;20034;-62
2023/02/18 13:36:58;;;;;;;4.03;1.23;;;;;;;;;;6234146;23;20031;-62
2023/02/18 13:39:26;;;;;;;3.78;0.93;;;;;;;;;;6174722;23;20016;-62
2023/02/18 13:42:12;;;;;;;4.57;1.00;;;;;;;;;;6238267;23;20024;-60
2023/02/18 13:44:40;;;;;;;1.77;0.80;;;;;;;;;;6234548;23;20060;-60
2023/02/18 13:47:34;;;;;;;5.47;0.68;;;;;;;;;;6234388;23;20055;-60
2023/02/18 13:50:13;;;;;;;3.65;0.93;;;;;;;;;;6234535;23;20028;-60
2023/02/18 13:52:47;;;;;;;4.65;0.75;;;;;;;;;;6235180;23;20475;-60
2023/02/18 13:55:22;;;;;;;3.53;0.88;;;;;;;;;;6233980;23;20091;-59
2023/02/18 13:57:56;;;;;;;4.45;0.88;;;;;;;;;;6235993;23;20103;-52
2023/02/18 14:00:35;;;;;;;4.68;0.75;;;;;;;;;;6235218;23;20024;-52
2023/02/18 14:03:20;;;;;;;4.97;1.00;;;;;;;;;;6233420;23;20026;-53
2023/02/18 14:05:48;;;;;;;12.80;5.38;;;;;;;;;;6233532;23;20035;-55
2023/02/18 14:08:35;;;;;;;5.90;2.97;;;;;;;;;;6235717;23;20104;-64
2023/02/18 14:11:11;;;;;;;4.63;1.35;;;;;;;;;;6235144;23;20020;-60
2023/02/18 14:13:55;;;;;;;6.53;1.80;;;;;;;;;;6233243;23;20020;-60
2023/02/18 14:16:22;;;;;;;3.78;1.40;;;;;;;;;;6233128;23;20394;-60
2023/02/18 14:19:00;;;;;;;2.90;1.40;;;;;;;;;;6234131;23;20020;-60
2023/02/18 14:21:37;;;;;;;6.00;1.48;;;;;;;;;;6221235;23;20169;-59
2023/02/18 14:24:11;;;;;;;3.03;1.00;;;;;;;;;;6232552;23;20031;-80
2023/02/18 14:26:45;;;;;;;;;;;;;;;;;;6233317;23;20278;-81
2023/02/18 14:29:28;;;;;;;2.40;1.08;;;;;;;;;;6235682;23;19986;-82
2023/02/18 14:32:02;;;;;;;5.43;1.60;;;;;;;;;;6235133;23;20023;-81
2023/02/18 14:34:37;;;;;;;4.72;1.33;;;;;;;;;;6236322;23;20082;-52
2023/02/18 14:37:21;;;;;;;2.90;1.20;;;;;;;;;;6236437;23;20020;-61
2023/02/18 14:40:13;;;;;;;6.93;2.20;;;;;;;;;;6235031;23;20020;-72
2023/02/18 14:42:59;;;;;;;7.57;1.75;;;;;;;;;;6233679;23;20561;-72
2023/02/18 14:45:39;;;;;;;7.38;1.52;;;;;;;;;;6235312;23;20345;-72
2023/02/18 14:48:14;;;;;;;7.18;1.70;;;;;;;;;;6234777;23;20561;-72
2023/02/18 14:50:50;;;;;;;6.45;1.10;;;;;;;;;;6233946;23;20031;-70
2023/02/18 14:53:22;;;;;;;7.07;1.50;;;;;;;;;;6235833;23;20063;-64
2023/02/18 14:56:02;;;;;;;6.68;1.40;;;;;;;;;;6236009;23;20113;-64
2023/02/18 14:58:37;;;;;;;6.45;1.40;;;;;;;;;;6234639;23;20131;-63
2023/02/18 15:01:22;;;;;;;3.38;1.30;;;;;;;;;;6233406;23;20024;-63
2023/02/18 15:03:51;;;;;;;8.07;1.40;;;;;;;;;;6235751;23;20020;-72
2023/02/18 15:06:25;;;;;;;6.80;1.27;;;;;;;;;;6235019;23;20020;-80
2023/02/18 15:08:52;;;;;;;1.73;1.17;;;;;;;;;;6235858;23;20024;-80
2023/02/18 15:11:21;;;;;;;3.97;1.08;;;;;;;;;;6235342;23;20096;-80
2023/02/18 15:13:55;;;;;;;6.50;1.27;;;;;;;;;;6234453;23;20356;-79
2023/02/18 15:16:32;;;;;;;5.88;1.00;;;;;;;;;;6235231;23;20115;-79
2023/02/18 15:19:07;;;;;;;3.33;1.33;;;;;;;;;;6234218;23;20026;-79
2023/02/18 15:21:39;;;;;;;5.80;1.60;;;;;;;;;;6235711;23;20355;-73